Aliq, Pennsylvania
Current Conditions -  °F | °C
As of 7:51 PM on Thursday 27 Nov 2014 (Local Time) from KPIT Reporting Station
Light Snow Light Snow  
Wind Chill: 20°   Ceiling: 4200
Heat Index: 29°   Visibility: 4mi
Dew Point: 25°   Wind: 10mph
Humidity: 85%   Direction: 270°W
Pressure: 30.19"   Gusts: NA
Location:  40.5921°N, 80.3191°W
Report Text: KPIT 280051Z 27009KT 4SM -SN BR BKN042 BKN120 M02/M04 A3019 RMK AO2 SLP244 P0000 T10171039
Loading
Personal Weather Stations






























Interactive Weather Map New forecast layout! Learn more

10-Day Weather Forecast

Advertisements
Track Severe Weather on mobile